Time;durP1;ratioP1;P1;durP2;ratioP2;P2;SDS_P1;SDS_P2;PMS_P1;PMS_P2;Temp;Humidity;BMP_temperature;BMP_pressure;BME280_temperature;BME280_humidity;BME280_pressure;Samples;Min_cycle;Max_cycle;Signal;HPM_P1;HPM_P2
2022/12/14 00:00:07;;;;;;;26.57;11.67;;;-4.60;99.90;;;;;;5019718;28;20223;-61
2022/12/14 00:02:33;;;;;;;24.40;11.40;;;-4.70;99.90;;;;;;5005893;28;20240;-61
2022/12/14 00:05:00;;;;;;;21.10;11.27;;;-4.80;99.90;;;;;;4976718;28;20226;-61
2022/12/14 00:07:28;;;;;;;20.33;11.00;;;-4.80;99.90;;;;;;4997209;28;20214;-61
2022/12/14 00:09:57;;;;;;;26.37;11.63;;;-4.80;99.90;;;;;;5006494;28;20268;-61
2022/12/14 00:12:23;;;;;;;27.20;12.10;;;-4.80;99.90;;;;;;4978586;28;20232;-61
2022/12/14 00:14:50;;;;;;;21.50;9.80;;;-4.80;99.90;;;;;;5016603;28;20228;-61
2022/12/14 00:17:17;;;;;;;27.67;11.80;;;-4.80;99.90;;;;;;5016267;28;20221;-61
2022/12/14 00:19:44;;;;;;;26.23;11.97;;;-4.80;99.90;;;;;;5006993;28;20708;-61
2022/12/14 00:22:11;;;;;;;28.77;10.33;;;-4.80;99.90;;;;;;5016156;28;20355;-61
2022/12/14 00:24:38;;;;;;;21.53;10.43;;;-4.90;99.90;;;;;;5018737;28;20228;-61
2022/12/14 00:27:06;;;;;;;25.17;11.50;;;-4.80;99.90;;;;;;5003887;28;20226;-61
2022/12/14 00:29:33;;;;;;;19.90;10.50;;;-4.80;99.90;;;;;;4983042;28;20230;-63
2022/12/14 00:32:00;;;;;;;20.43;10.63;;;-4.90;99.90;;;;;;5004433;28;20750;-61
2022/12/14 00:34:27;;;;;;;24.27;11.67;;;-5.00;99.90;;;;;;4985958;28;20225;-61
2022/12/14 00:36:54;;;;;;;21.07;11.27;;;-5.10;99.90;;;;;;4995608;28;20225;-61
2022/12/14 00:39:21;;;;;;;23.13;10.77;;;-5.00;99.90;;;;;;4998503;28;20323;-61
2022/12/14 00:41:48;;;;;;;22.40;11.23;;;-4.90;99.90;;;;;;5009796;28;20345;-61
2022/12/14 00:44:16;;;;;;;20.13;10.97;;;-4.90;99.90;;;;;;4995503;28;20349;-62
2022/12/14 00:46:42;;;;;;;22.53;11.33;;;-4.90;99.90;;;;;;5014391;28;20222;-62
2022/12/14 00:49:10;;;;;;;21.63;9.70;;;-4.90;99.90;;;;;;5023062;28;20844;-62
2022/12/14 00:51:37;;;;;;;22.13;10.43;;;-4.90;99.90;;;;;;5004652;28;20217;-61
2022/12/14 00:54:04;;;;;;;23.20;10.73;;;-5.00;99.90;;;;;;5023417;28;20224;-62
2022/12/14 00:56:32;;;;;;;25.90;10.27;;;-5.10;99.90;;;;;;5014495;28;21475;-62
2022/12/14 00:58:59;;;;;;;19.07;10.37;;;-5.20;99.90;;;;;;5020772;28;20214;-62
2022/12/14 01:01:29;;;;;;;22.90;10.13;;;-5.00;99.90;;;;;;4988006;28;20232;-62
2022/12/14 01:04:15;;;;;;;20.67;9.97;;;-4.70;99.90;;;;;;5017079;28;20225;-61
2022/12/14 01:06:43;;;;;;;21.20;10.07;;;-5.00;99.90;;;;;;5010680;28;20224;-62
2022/12/14 01:09:10;;;;;;;21.13;10.63;;;-4.90;99.90;;;;;;5018947;28;21082;-62
2022/12/14 01:11:37;;;;;;;21.43;10.70;;;;;;;;;;5023425;28;20240;-61
2022/12/14 01:14:03;;;;;;;25.23;12.37;;;-5.00;99.90;;;;;;5016969;28;20245;-61
2022/12/14 01:16:32;;;;;;;23.03;11.57;;;-5.00;99.90;;;;;;4986997;28;20226;-61
2022/12/14 01:18:59;;;;;;;24.30;10.73;;;-5.00;99.90;;;;;;5018385;28;20222;-61
2022/12/14 01:21:27;;;;;;;22.40;11.53;;;-4.90;99.90;;;;;;4998338;28;20295;-61
2022/12/14 01:23:56;;;;;;;21.27;9.80;;;-4.90;99.90;;;;;;5015230;28;20230;-61
2022/12/14 01:26:24;;;;;;;25.07;11.23;;;-4.90;99.90;;;;;;5018823;28;20309;-61
2022/12/14 01:28:55;;;;;;;19.73;9.83;;;-5.10;99.90;;;;;;5015199;28;20897;-62
2022/12/14 01:31:24;;;;;;;15.27;8.87;;;-5.20;99.90;;;;;;4994152;28;20228;-61
2022/12/14 01:33:52;;;;;;;16.40;9.13;;;-5.10;99.90;;;;;;5019783;28;20223;-61
2022/12/14 01:36:20;;;;;;;23.97;10.63;;;-5.20;99.90;;;;;;5025882;28;20232;-61
2022/12/14 01:38:48;;;;;;;22.17;9.60;;;-5.20;99.90;;;;;;5013509;28;20226;-61
2022/12/14 01:41:23;;;;;;;21.80;9.83;;;-5.20;99.90;;;;;;5029930;28;20599;-62
2022/12/14 01:43:51;;;;;;;19.87;9.97;;;-5.20;99.90;;;;;;5016155;28;20248;-62
2022/12/14 01:46:25;;;;;;;21.50;10.53;;;-5.30;99.90;;;;;;4995173;28;20246;-61
2022/12/14 01:48:56;;;;;;;20.73;9.80;;;-5.10;99.90;;;;;;5025241;28;20221;-61
2022/12/14 01:51:25;;;;;;;22.80;10.67;;;-5.10;99.90;;;;;;5029547;28;20217;-61
2022/12/14 01:53:53;;;;;;;16.13;9.07;;;-5.10;99.90;;;;;;5014296;28;20229;-61
2022/12/14 01:56:20;;;;;;;23.07;10.87;;;-5.20;99.90;;;;;;5018616;28;20734;-61
2022/12/14 01:58:46;;;;;;;23.80;10.20;;;-5.40;99.90;;;;;;4975021;28;22701;-62
2022/12/14 02:01:14;;;;;;;20.77;9.30;;;-5.30;99.90;;;;;;5010158;28;21449;-62
2022/12/14 02:03:44;;;;;;;19.47;11.17;;;-5.30;99.90;;;;;;4993537;28;20230;-62
2022/12/14 02:06:17;;;;;;;19.47;10.07;;;-5.20;99.90;;;;;;5020453;28;20224;-61
2022/12/14 02:08:45;;;;;;;23.33;10.60;;;-5.20;99.90;;;;;;5014092;28;20226;-61
2022/12/14 02:11:12;;;;;;;22.00;10.23;;;-5.20;99.90;;;;;;5016576;28;20218;-62
2022/12/14 02:13:41;;;;;;;21.57;10.60;;;-5.30;99.90;;;;;;5023087;28;20240;-62
2022/12/14 02:16:08;;;;;;;20.53;10.07;;;-5.30;99.90;;;;;;5010308;28;20261;-61
2022/12/14 02:18:35;;;;;;;21.57;9.83;;;-5.30;99.90;;;;;;4973585;28;20228;-61
2022/12/14 02:21:21;;;;;;;20.93;9.30;;;-5.30;99.90;;;;;;4994783;28;21169;-60
2022/12/14 02:24:10;;;;;;;18.27;9.87;;;-5.30;99.90;;;;;;4984577;28;21211;-62
2022/12/14 02:27:10;;;;;;;16.70;9.20;;;-5.30;99.90;;;;;;4981502;28;20232;-62
2022/12/14 02:30:05;;;;;;;17.47;8.83;;;-5.30;99.90;;;;;;5014161;28;20226;-61
2022/12/14 02:32:57;;;;;;;19.10;9.20;;;-5.20;99.90;;;;;;5024933;28;20287;-61
2022/12/14 02:35:38;;;;;;;18.87;9.87;;;-5.50;99.90;;;;;;4999832;28;20226;-61
2022/12/14 02:38:18;;;;;;;22.83;9.33;;;-5.40;99.90;;;;;;5008923;28;20221;-60
2022/12/14 02:40:56;;;;;;;21.37;9.83;;;-5.50;99.90;;;;;;4996631;28;20266;-61
2022/12/14 02:43:31;;;;;;;22.50;10.90;;;-5.50;99.90;;;;;;5025290;28;20223;-61
2022/12/14 02:46:06;;;;;;;21.43;9.17;;;-5.50;99.90;;;;;;5014603;28;20237;-61
2022/12/14 02:48:39;;;;;;;27.20;10.00;;;-5.40;99.90;;;;;;4995490;28;20228;-61
2022/12/14 02:51:14;;;;;;;15.53;8.97;;;-5.40;99.90;;;;;;5026305;28;20217;-62
2022/12/14 02:53:47;;;;;;;16.30;9.20;;;-5.30;99.90;;;;;;5027498;28;20254;-61
2022/12/14 02:56:18;;;;;;;20.30;8.67;;;-5.40;99.90;;;;;;5011794;28;20840;-61
2022/12/14 02:58:49;;;;;;;17.40;8.67;;;-5.50;99.90;;;;;;5023115;28;20228;-61
2022/12/14 03:01:21;;;;;;;22.00;9.93;;;-5.50;99.90;;;;;;5010803;28;20279;-62
2022/12/14 03:03:48;;;;;;;17.70;9.40;;;-5.50;99.90;;;;;;4992590;28;20241;-61
2022/12/14 03:06:24;;;;;;;16.00;9.10;;;-5.40;99.90;;;;;;5019961;28;20221;-61
2022/12/14 03:08:53;;;;;;;29.87;11.77;;;-5.30;99.90;;;;;;5017227;28;20272;-61
2022/12/14 03:11:23;;;;;;;34.40;12.77;;;-5.30;99.90;;;;;;5015002;28;20918;-61
2022/12/14 03:13:56;;;;;;;32.60;13.13;;;-5.20;99.90;;;;;;5013648;28;20237;-61
2022/12/14 03:16:27;;;;;;;25.30;10.43;;;-5.30;99.90;;;;;;5016602;28;20597;-61
2022/12/14 03:18:58;;;;;;;22.87;10.57;;;-5.40;99.90;;;;;;4994442;28;20225;-61
2022/12/14 03:21:31;;;;;;;19.47;8.83;;;-5.40;99.90;;;;;;5021650;28;20225;-61
2022/12/14 03:24:02;;;;;;;18.13;9.63;;;-5.30;99.90;;;;;;5021803;28;20576;-61
2022/12/14 03:26:34;;;;;;;13.50;8.17;;;-5.30;99.90;;;;;;5011304;28;20228;-61
2022/12/14 03:29:06;;;;;;;23.03;8.70;;;-5.50;99.90;;;;;;5023126;28;20225;-61
2022/12/14 03:31:41;;;;;;;18.07;8.50;;;-5.50;99.90;;;;;;5015919;28;20232;-61
2022/12/14 03:34:12;;;;;;;20.83;7.90;;;-6.00;99.90;;;;;;5014007;28;20235;-61
2022/12/14 03:36:45;;;;;;;21.43;9.97;;;-6.00;99.90;;;;;;4991469;28;20356;-61
2022/12/14 03:39:17;;;;;;;18.37;9.40;;;-6.00;99.90;;;;;;4991143;28;21143;-61
2022/12/14 03:41:50;;;;;;;17.40;8.40;;;-6.00;99.90;;;;;;5015173;28;20340;-61
2022/12/14 03:44:26;;;;;;;23.43;9.73;;;-6.00;99.90;;;;;;5018697;28;20225;-61
2022/12/14 03:47:01;;;;;;;16.00;9.53;;;-6.10;99.90;;;;;;5021972;28;20623;-62
2022/12/14 03:49:41;;;;;;;14.97;8.47;;;-6.10;99.90;;;;;;5010314;28;20731;-61
2022/12/14 03:52:16;;;;;;;18.20;8.13;;;-6.10;99.90;;;;;;4993874;28;20228;-61
2022/12/14 03:54:51;;;;;;;20.60;9.77;;;-6.00;99.90;;;;;;5012152;28;20228;-61
2022/12/14 03:57:32;;;;;;;15.67;8.30;;;-6.10;99.90;;;;;;5008704;28;20729;-61
2022/12/14 04:00:04;;;;;;;23.20;9.73;;;-6.20;99.90;;;;;;5019034;28;20593;-61
2022/12/14 04:02:37;;;;;;;22.20;9.73;;;-6.20;99.90;;;;;;4988026;28;21400;-61
2022/12/14 04:05:08;;;;;;;20.43;9.33;;;-6.40;99.90;;;;;;4979917;28;20222;-61
2022/12/14 04:07:38;;;;;;;15.73;8.50;;;-6.50;99.90;;;;;;4981341;28;20606;-61
2022/12/14 04:21:27;;;;;;;18.37;8.10;;;-6.50;99.90;;;;;;4992872;28;23101;-61
2022/12/14 04:26:50;;;;;;;17.53;8.43;;;-6.00;99.90;;;;;;4997425;28;20270;-61
2022/12/14 04:32:13;;;;;;;14.53;7.57;;;-6.00;99.90;;;;;;5009213;28;20298;-61
2022/12/14 04:34:48;;;;;;;16.40;9.10;;;-6.00;99.90;;;;;;4991377;28;20239;-60
2022/12/14 04:37:19;;;;;;;22.87;8.57;;;-6.00;99.90;;;;;;4986950;28;20228;-60
2022/12/14 04:39:51;;;;;;;16.03;8.87;;;-5.90;99.90;;;;;;5000749;28;20974;-62
2022/12/14 04:42:22;;;;;;;18.67;8.63;;;-5.80;99.90;;;;;;5000596;28;20228;-62
2022/12/14 04:44:52;;;;;;;21.57;8.60;;;-5.80;99.90;;;;;;5013124;28;20616;-61
2022/12/14 04:47:20;;;;;;;20.93;8.17;;;-5.80;99.90;;;;;;5025082;28;20224;-60
2022/12/14 04:49:53;;;;;;;19.40;8.97;;;-5.90;99.90;;;;;;5018374;28;20307;-60
2022/12/14 04:52:28;;;;;;;15.83;8.83;;;-5.90;99.90;;;;;;5013088;28;20588;-60
2022/12/14 04:55:01;;;;;;;15.03;7.97;;;-6.00;99.90;;;;;;4983536;28;21062;-61
2022/12/14 04:57:35;;;;;;;14.77;8.60;;;-6.00;99.90;;;;;;5002101;28;20224;-61
2022/12/14 05:00:04;;;;;;;17.10;8.77;;;-5.70;99.90;;;;;;4991756;28;20595;-61
2022/12/14 05:02:41;;;;;;;16.43;8.30;;;-6.10;99.90;;;;;;5013728;28;20222;-60
2022/12/14 05:05:16;;;;;;;14.73;7.37;;;-6.20;99.90;;;;;;5012112;28;20236;-61
2022/12/14 05:07:49;;;;;;;17.80;7.93;;;-6.40;99.90;;;;;;4960918;28;20886;-61
2022/12/14 05:10:20;;;;;;;18.43;7.83;;;-6.40;99.90;;;;;;5013568;28;20732;-60
2022/12/14 05:12:57;;;;;;;16.90;8.53;;;-6.50;99.90;;;;;;4989011;28;20392;-60
2022/12/14 05:15:29;;;;;;;18.57;8.03;;;-6.40;99.90;;;;;;5006801;28;20236;-60
2022/12/14 05:18:01;;;;;;;16.90;7.73;;;-6.30;99.90;;;;;;5020820;28;20213;-60
2022/12/14 05:20:29;;;;;;;19.87;8.67;;;-6.30;99.90;;;;;;5020432;28;20225;-60
2022/12/14 05:22:56;;;;;;;18.93;8.23;;;-4.90;99.90;;;;;;4993959;28;21081;-60
2022/12/14 05:25:23;;;;;;;15.73;8.30;;;-6.30;99.90;;;;;;5019552;28;21107;-60
2022/12/14 05:27:50;;;;;;;18.77;8.47;;;-6.20;99.90;;;;;;5012194;28;20256;-60
2022/12/14 05:30:17;;;;;;;16.80;7.90;;;-6.30;99.90;;;;;;5001946;28;20596;-60
2022/12/14 05:32:44;;;;;;;15.87;7.53;;;-6.30;99.90;;;;;;4989832;28;20217;-61
2022/12/14 05:35:12;;;;;;;16.27;7.53;;;-6.50;99.90;;;;;;4967566;28;20719;-61
2022/12/14 05:37:40;;;;;;;16.80;9.07;;;-6.40;99.90;;;;;;4974809;28;20226;-62
2022/12/14 05:40:09;;;;;;;16.13;7.70;;;-6.50;99.90;;;;;;4980125;28;20225;-62
2022/12/14 05:42:35;;;;;;;17.13;8.03;;;-6.40;99.90;;;;;;5011500;28;20248;-61
2022/12/14 05:45:02;;;;;;;15.20;7.37;;;-6.40;99.90;;;;;;4972876;28;21233;-62
2022/12/14 05:47:29;;;;;;;15.77;7.63;;;-6.30;99.90;;;;;;5014281;28;20224;-62
2022/12/14 05:49:56;;;;;;;18.47;7.67;;;-6.20;99.90;;;;;;4995190;28;20217;-61
2022/12/14 05:52:26;;;;;;;18.33;9.27;;;-6.30;99.90;;;;;;4987867;28;20314;-62
2022/12/14 05:54:54;;;;;;;21.90;8.73;;;-6.20;99.90;;;;;;4972965;28;20217;-61
2022/12/14 05:57:21;;;;;;;16.53;8.67;;;-6.20;99.90;;;;;;4998641;28;20229;-61
2022/12/14 05:59:48;;;;;;;16.77;9.37;;;-6.40;99.90;;;;;;4990555;28;20714;-61
2022/12/14 06:02:15;;;;;;;33.00;8.27;;;-6.40;99.90;;;;;;4993955;28;20221;-61
2022/12/14 06:04:41;;;;;;;12.20;8.13;;;-6.70;99.90;;;;;;5015822;28;20226;-61
2022/12/14 06:07:10;;;;;;;14.20;7.37;;;-6.90;99.90;;;;;;5004756;28;20714;-61
2022/12/14 06:09:37;;;;;;;16.73;8.00;;;-6.80;99.90;;;;;;4983976;28;20205;-60
2022/12/14 06:12:06;;;;;;;16.50;6.83;;;-6.80;99.90;;;;;;5008447;28;20783;-61
2022/12/14 06:14:32;;;;;;;19.30;7.80;;;-6.80;99.90;;;;;;5011317;28;20239;-61
2022/12/14 06:16:59;;;;;;;14.83;8.10;;;-6.90;99.90;;;;;;4991902;28;20640;-61
2022/12/14 06:19:26;;;;;;;16.83;7.87;;;-6.90;99.90;;;;;;5013709;28;23190;-61
2022/12/14 06:21:53;;;;;;;15.23;7.30;;;-6.90;99.90;;;;;;5004895;28;20201;-60
2022/12/14 06:24:19;;;;;;;14.93;7.13;;;-6.80;99.90;;;;;;4972443;28;20220;-61
2022/12/14 06:26:46;;;;;;;16.50;7.73;;;-6.80;99.90;;;;;;5010208;28;20220;-60
2022/12/14 06:29:16;;;;;;;14.77;7.17;;;-6.70;99.90;;;;;;5015580;28;20200;-61
2022/12/14 06:31:44;;;;;;;18.67;9.60;;;-6.70;99.90;;;;;;4993116;28;20233;-61
2022/12/14 06:34:11;;;;;;;14.23;7.27;;;-6.70;99.90;;;;;;5016429;28;20226;-60
2022/12/14 06:36:40;;;;;;;14.77;8.67;;;-6.70;99.90;;;;;;5017969;28;20205;-60
2022/12/14 06:39:10;;;;;;;17.13;8.40;;;-6.80;99.90;;;;;;5016031;28;20252;-61
2022/12/14 06:41:37;;;;;;;20.27;8.10;;;-6.70;99.90;;;;;;4978272;28;20222;-60
2022/12/14 06:44:07;;;;;;;15.63;7.23;;;-6.70;99.90;;;;;;5021979;28;20299;-61
2022/12/14 06:46:36;;;;;;;18.83;8.53;;;-6.70;99.90;;;;;;5009391;28;20231;-60
2022/12/14 06:49:04;;;;;;;17.93;8.10;;;-6.60;99.90;;;;;;5016876;28;20201;-61
2022/12/14 06:51:32;;;;;;;13.50;7.30;;;-6.60;99.90;;;;;;5024457;28;20975;-60
2022/12/14 06:53:59;;;;;;;17.17;7.97;;;-6.70;99.90;;;;;;5013495;28;20322;-61
2022/12/14 06:56:27;;;;;;;16.27;7.80;;;-6.70;99.90;;;;;;4997713;28;20231;-60
2022/12/14 06:58:54;;;;;;;19.23;6.43;;;-6.80;99.90;;;;;;5023414;28;20197;-60
2022/12/14 07:01:23;;;;;;;21.40;9.40;;;-6.70;99.90;;;;;;5013840;28;20215;-60
2022/12/14 07:03:53;;;;;;;19.23;8.80;;;-6.70;99.90;;;;;;5014109;28;20205;-60
2022/12/14 07:06:21;;;;;;;18.07;8.43;;;-6.50;99.90;;;;;;4998963;28;20317;-60
2022/12/14 07:08:48;;;;;;;27.90;9.70;;;-6.70;99.90;;;;;;4984809;28;20225;-61
2022/12/14 07:11:16;;;;;;;30.57;11.50;;;-6.70;99.90;;;;;;4982933;28;20236;-61
2022/12/14 07:13:43;;;;;;;16.50;8.07;;;-6.80;99.90;;;;;;5012508;28;20225;-61
2022/12/14 07:16:14;;;;;;;33.47;14.60;;;-6.70;99.90;;;;;;5017136;28;20639;-60
2022/12/14 07:18:41;;;;;;;58.70;20.10;;;-6.70;99.90;;;;;;4994981;28;20328;-60
2022/12/14 07:21:11;;;;;;;32.43;12.67;;;-6.70;99.90;;;;;;5013304;28;20226;-61
2022/12/14 07:23:39;;;;;;;28.93;9.73;;;-6.80;99.90;;;;;;5016294;28;20241;-61
2022/12/14 07:26:09;;;;;;;19.90;8.63;;;-7.00;99.90;;;;;;5009595;28;20212;-61
2022/12/14 07:28:37;;;;;;;15.10;7.23;;;-7.20;99.90;;;;;;4980487;28;20982;-60
2022/12/14 07:31:06;;;;;;;14.30;7.27;;;-7.30;99.90;;;;;;5009015;28;20590;-60
2022/12/14 07:33:33;;;;;;;14.50;6.60;;;-7.40;99.90;;;;;;4998738;28;20221;-60
2022/12/14 07:36:05;;;;;;;14.90;6.80;;;-7.30;99.90;;;;;;5007965;28;21120;-60
2022/12/14 07:38:34;;;;;;;17.47;7.97;;;-7.40;99.90;;;;;;5013756;28;20615;-60
2022/12/14 07:41:09;;;;;;;14.87;7.30;;;-7.40;99.90;;;;;;5009452;28;20685;-60
2022/12/14 07:43:36;;;;;;;19.53;8.20;;;-7.50;99.90;;;;;;4976836;28;20883;-61
2022/12/14 07:46:05;;;;;;;13.23;7.23;;;-7.50;99.90;;;;;;5022170;28;20236;-61
2022/12/14 07:48:33;;;;;;;13.77;7.30;;;-7.50;99.90;;;;;;5002053;28;20710;-61
2022/12/14 07:51:04;;;;;;;15.40;7.97;;;-7.50;99.90;;;;;;5011371;28;20237;-60
2022/12/14 07:53:34;;;;;;;15.10;7.97;;;-7.50;99.90;;;;;;5015134;28;20752;-60
2022/12/14 07:56:03;;;;;;;12.93;7.30;;;-7.50;99.90;;;;;;5011884;28;20229;-60
2022/12/14 07:58:30;;;;;;;16.30;7.87;;;-7.60;99.90;;;;;;4979808;28;20303;-60
2022/12/14 08:01:08;;;;;;;13.77;6.27;;;-7.70;99.90;;;;;;5003956;28;20231;-60
2022/12/14 08:03:34;;;;;;;13.40;5.73;;;-7.70;99.90;;;;;;5006935;28;20232;-61
2022/12/14 08:06:04;;;;;;;13.03;7.37;;;-7.70;99.90;;;;;;4992140;28;20225;-61
2022/12/14 08:08:32;;;;;;;13.33;6.53;;;-7.70;99.90;;;;;;5019440;28;20213;-60
2022/12/14 08:10:59;;;;;;;15.20;7.20;;;-7.60;99.90;;;;;;5019447;28;20224;-61
2022/12/14 08:13:26;;;;;;;11.90;7.30;;;-7.50;99.90;;;;;;4999618;28;20231;-60
2022/12/14 08:15:53;;;;;;;14.23;7.17;;;-7.50;99.90;;;;;;5009977;28;20212;-60
2022/12/14 08:18:20;;;;;;;12.80;6.97;;;-7.40;99.90;;;;;;5026858;28;20217;-60
2022/12/14 08:20:49;;;;;;;16.43;9.10;;;-7.00;99.90;;;;;;5002647;28;20227;-60
2022/12/14 08:23:16;;;;;;;26.37;13.17;;;-6.80;99.90;;;;;;5005480;28;20275;-61
2022/12/14 08:25:45;;;;;;;18.83;9.53;;;-6.70;99.90;;;;;;5013760;28;20220;-61
2022/12/14 08:28:12;;;;;;;24.93;10.37;;;-6.60;99.90;;;;;;5025554;28;20225;-60
2022/12/14 08:30:39;;;;;;;22.57;10.03;;;-6.50;99.90;;;;;;5000569;28;20220;-61
2022/12/14 08:33:05;;;;;;;22.67;11.00;;;-6.50;99.90;;;;;;5023190;28;20275;-61
2022/12/14 08:35:33;;;;;;;43.20;17.40;;;-6.40;99.90;;;;;;5014572;28;20229;-61
2022/12/14 08:38:00;;;;;;;36.73;16.53;;;-6.50;99.90;;;;;;5011226;28;20243;-61
2022/12/14 08:40:26;;;;;;;31.30;14.47;;;-6.60;99.90;;;;;;5026248;28;20275;-61
2022/12/14 08:42:54;;;;;;;23.03;11.73;;;-6.50;99.90;;;;;;5019728;28;20217;-61
2022/12/14 08:45:22;;;;;;;18.57;9.43;;;-6.40;99.90;;;;;;4996936;28;21061;-61
2022/12/14 08:47:49;;;;;;;39.00;13.53;;;-6.30;99.90;;;;;;5022161;28;20218;-61
2022/12/14 08:50:16;;;;;;;59.97;19.87;;;-6.20;99.90;;;;;;5014220;28;21089;-61
2022/12/14 08:52:46;;;;;;;64.27;22.67;;;-6.20;99.90;;;;;;5009418;28;20225;-61
2022/12/14 08:55:12;;;;;;;47.40;17.70;;;-6.20;99.90;;;;;;5010539;28;20232;-61
2022/12/14 08:57:39;;;;;;;50.37;16.60;;;-6.10;99.90;;;;;;5021391;28;20303;-61
2022/12/14 09:00:09;;;;;;;56.90;19.37;;;-6.10;99.90;;;;;;4994186;28;21869;-61
2022/12/14 09:02:36;;;;;;;27.27;9.77;;;-6.10;99.90;;;;;;5023193;28;20232;-62
2022/12/14 09:05:03;;;;;;;17.10;8.47;;;-6.00;99.90;;;;;;5007683;28;20997;-61
2022/12/14 09:07:31;;;;;;;17.53;9.23;;;-6.00;99.90;;;;;;5010626;28;20232;-61
2022/12/14 09:09:58;;;;;;;16.47;8.73;;;-6.00;99.90;;;;;;5012323;28;20209;-61
2022/12/14 09:12:25;;;;;;;20.57;9.13;;;-5.90;99.90;;;;;;5011038;28;20718;-63
2022/12/14 09:14:52;;;;;;;17.90;8.07;;;-5.90;99.90;;;;;;5001302;28;20239;-60
2022/12/14 09:17:20;;;;;;;15.87;9.73;;;-5.80;99.90;;;;;;5019770;28;20267;-61
2022/12/14 09:19:47;;;;;;;13.53;8.30;;;-5.80;99.90;;;;;;5023093;28;20205;-61
2022/12/14 09:22:14;;;;;;;18.27;9.67;;;-5.60;99.90;;;;;;5008751;28;20220;-61
2022/12/14 09:24:41;;;;;;;18.13;9.73;;;-5.60;99.90;;;;;;5021764;28;20202;-61
2022/12/14 09:27:08;;;;;;;20.43;10.07;;;-5.50;99.90;;;;;;5002510;28;20899;-60
2022/12/14 09:29:35;;;;;;;18.30;10.13;;;-5.50;99.90;;;;;;5021912;28;20225;-61
2022/12/14 09:32:02;;;;;;;14.83;8.27;;;-5.50;99.90;;;;;;4994605;28;20459;-60
2022/12/14 09:34:30;;;;;;;20.77;9.13;;;-5.60;99.90;;;;;;5028342;28;20240;-60
2022/12/14 09:36:57;;;;;;;21.77;8.57;;;-5.50;99.90;;;;;;5025483;28;20213;-60
2022/12/14 09:39:24;;;;;;;12.93;8.17;;;-5.40;99.90;;;;;;5010603;28;20224;-60
2022/12/14 09:42:02;;;;;;;15.20;8.13;;;-5.40;99.90;;;;;;5002496;28;20217;-61
2022/12/14 09:44:43;;;;;;;14.83;8.87;;;-5.30;99.90;;;;;;5021497;28;20201;-60
2022/12/14 09:47:14;;;;;;;17.50;8.77;;;-5.30;99.90;;;;;;4973037;28;20209;-60
2022/12/14 09:49:47;;;;;;;14.10;8.30;;;-5.30;99.90;;;;;;5013904;28;20198;-61
2022/12/14 09:52:19;;;;;;;17.20;9.43;;;-5.20;99.90;;;;;;5003844;28;20190;-62
2022/12/14 09:54:47;;;;;;;14.40;8.57;;;-5.20;99.90;;;;;;5003236;28;20880;-60
2022/12/14 09:57:20;;;;;;;15.97;8.43;;;-5.10;99.90;;;;;;4997982;28;20228;-60
2022/12/14 09:59:47;;;;;;;15.97;8.20;;;-5.10;99.90;;;;;;5021712;28;20667;-60
2022/12/14 10:02:26;;;;;;;16.30;8.40;;;-5.00;99.90;;;;;;4993544;28;20581;-63
2022/12/14 10:05:14;;;;;;;14.10;8.97;;;-5.00;99.90;;;;;;5019364;28;20213;-60
2022/12/14 10:07:48;;;;;;;13.40;7.63;;;-4.90;99.90;;;;;;5005032;28;20219;-60
2022/12/14 10:10:23;;;;;;;20.27;7.60;;;-4.80;99.90;;;;;;5006390;28;20207;-61
2022/12/14 10:13:00;;;;;;;18.80;8.60;;;-4.70;99.90;;;;;;5006596;28;20239;-60
2022/12/14 10:15:31;;;;;;;21.17;9.40;;;-4.70;99.90;;;;;;5016928;28;20238;-60
2022/12/14 10:18:24;;;;;;;13.07;7.87;;;-4.70;99.90;;;;;;5010211;28;20222;-60
2022/12/14 10:20:57;;;;;;;19.60;8.73;;;-4.70;99.90;;;;;;5019749;28;20651;-61
2022/12/14 10:23:26;;;;;;;22.03;9.07;;;-4.60;99.90;;;;;;5004785;28;20225;-61
2022/12/14 10:25:59;;;;;;;16.67;7.93;;;-4.60;99.90;;;;;;5008199;28;20227;-60
2022/12/14 10:28:37;;;;;;;19.53;9.73;;;-4.50;99.90;;;;;;5005693;28;20534;-60
2022/12/14 10:31:11;;;;;;;18.33;8.83;;;-4.50;99.90;;;;;;5013312;28;20860;-61
2022/12/14 10:33:43;;;;;;;16.67;9.50;;;-4.40;99.90;;;;;;5005590;28;20200;-60
2022/12/14 10:36:19;;;;;;;15.57;9.57;;;-4.20;99.90;;;;;;5016171;28;21667;-60
2022/12/14 10:38:56;;;;;;;13.47;7.83;;;-4.20;99.90;;;;;;5004961;28;20533;-60
2022/12/14 10:41:34;;;;;;;14.87;8.33;;;-4.10;99.90;;;;;;5013469;28;20673;-60
2022/12/14 10:44:14;;;;;;;16.87;9.63;;;-4.00;99.90;;;;;;5003086;28;20203;-61
2022/12/14 10:46:45;;;;;;;17.50;10.97;;;-4.00;99.90;;;;;;5016763;28;24019;-60
2022/12/14 10:49:17;;;;;;;19.03;10.00;;;-4.00;99.90;;;;;;4993530;28;20215;-60
2022/12/14 10:51:49;;;;;;;16.67;8.83;;;-3.90;99.90;;;;;;5020637;28;20220;-60
2022/12/14 10:54:26;;;;;;;16.67;8.57;;;-3.90;99.90;;;;;;5002548;28;20229;-60
2022/12/14 10:56:53;;;;;;;15.60;9.30;;;-3.80;99.90;;;;;;5006260;28;20443;-60
2022/12/14 10:59:32;;;;;;;15.90;8.60;;;-3.80;99.90;;;;;;5010145;28;20216;-60
2022/12/14 11:02:03;;;;;;;15.27;8.77;;;-3.70;99.90;;;;;;5021344;28;20374;-60
2022/12/14 11:04:36;;;;;;;17.97;8.70;;;-3.70;99.90;;;;;;5020313;28;20535;-60
2022/12/14 11:07:07;;;;;;;16.27;8.63;;;-3.60;99.90;;;;;;5007298;28;20582;-60
2022/12/14 11:09:35;;;;;;;14.70;7.80;;;-3.60;99.90;;;;;;5017982;28;20204;-60
2022/12/14 11:12:06;;;;;;;12.70;8.27;;;-3.60;99.90;;;;;;4989933;28;20359;-60
2022/12/14 11:14:34;;;;;;;14.40;7.80;;;-3.60;99.90;;;;;;4994479;28;20223;-60
2022/12/14 11:17:01;;;;;;;19.33;9.07;;;-3.50;99.90;;;;;;5003682;28;20286;-61
2022/12/14 11:19:29;;;;;;;17.27;8.77;;;-3.50;99.90;;;;;;5011307;28;20205;-61
2022/12/14 11:22:12;;;;;;;19.00;9.00;;;-3.40;99.90;;;;;;4992068;28;20216;-62
2022/12/14 11:24:45;;;;;;;18.27;8.57;;;-3.30;99.90;;;;;;5011417;28;20637;-62
2022/12/14 11:27:13;;;;;;;15.20;8.37;;;-3.30;99.90;;;;;;4996668;28;20227;-62
2022/12/14 11:29:44;;;;;;;13.07;7.87;;;-3.30;99.90;;;;;;5013978;28;20202;-62
2022/12/14 11:32:18;;;;;;;16.77;9.00;;;-3.30;99.90;;;;;;4996460;28;20223;-61
2022/12/14 11:34:54;;;;;;;17.60;8.93;;;-3.20;99.90;;;;;;5013461;28;20239;-62
2022/12/14 11:37:24;;;;;;;15.73;8.03;;;-3.20;99.90;;;;;;4972506;28;20470;-62
2022/12/14 11:39:54;;;;;;;13.33;7.97;;;-3.10;99.90;;;;;;5020010;28;20198;-62
2022/12/14 11:42:22;;;;;;;13.80;8.60;;;-3.10;99.90;;;;;;4992954;28;20230;-61
2022/12/14 11:44:51;;;;;;;15.93;9.37;;;-3.10;99.90;;;;;;5018284;28;20232;-62
2022/12/14 11:47:19;;;;;;;17.93;8.63;;;-3.00;99.90;;;;;;5003182;28;20941;-61
2022/12/14 11:49:48;;;;;;;13.83;7.90;;;-3.00;99.90;;;;;;5018058;28;20200;-62
2022/12/14 11:52:17;;;;;;;14.70;8.20;;;-2.90;99.90;;;;;;4978866;28;20564;-62
2022/12/14 11:54:48;;;;;;;12.97;7.43;;;-2.90;99.90;;;;;;5016502;28;20196;-62
2022/12/14 11:57:24;;;;;;;15.70;9.23;;;-2.80;99.90;;;;;;4998996;28;20225;-62
2022/12/14 11:59:54;;;;;;;15.87;8.40;;;-2.80;99.90;;;;;;5012172;28;20205;-61
2022/12/14 12:02:28;;;;;;;17.73;7.80;;;-2.70;99.90;;;;;;5002615;28;21131;-63
2022/12/14 12:04:59;;;;;;;14.73;7.70;;;-2.70;99.90;;;;;;5018122;28;20248;-62
2022/12/14 12:07:31;;;;;;;16.00;9.37;;;-2.70;99.90;;;;;;4984059;28;27141;-62
2022/12/14 12:10:05;;;;;;;16.30;9.47;;;-2.60;99.90;;;;;;5018553;28;20225;-62
2022/12/14 12:12:32;;;;;;;19.67;9.10;;;-2.60;99.90;;;;;;5006409;28;20456;-62
2022/12/14 12:14:59;;;;;;;15.17;8.70;;;-2.50;99.90;;;;;;4999542;28;20766;-62
2022/12/14 12:17:42;;;;;;;14.97;8.50;;;-2.50;99.90;;;;;;5017880;28;20341;-62
2022/12/14 12:20:28;;;;;;;11.77;7.90;;;-2.50;99.90;;;;;;4993287;28;20217;-62
2022/12/14 12:23:01;;;;;;;18.17;8.50;;;-2.50;99.90;;;;;;4989655;28;20209;-62
2022/12/14 12:25:33;;;;;;;19.60;8.70;;;-2.50;99.90;;;;;;5012316;28;20337;-62
2022/12/14 12:28:07;;;;;;;19.50;9.03;;;-2.40;99.90;;;;;;5002560;28;20279;-62
2022/12/14 12:30:38;;;;;;;15.87;8.77;;;-2.40;99.90;;;;;;5014837;28;20217;-61
2022/12/14 12:33:14;;;;;;;12.53;8.70;;;-2.40;99.90;;;;;;5008748;28;20264;-62
2022/12/14 12:35:48;;;;;;;14.67;8.53;;;-2.40;99.90;;;;;;5011198;28;20271;-62
2022/12/14 12:38:22;;;;;;;15.67;8.60;;;-2.20;99.90;;;;;;4977151;28;20328;-62
2022/12/14 12:40:59;;;;;;;15.00;8.40;;;-2.20;99.90;;;;;;5019393;28;20198;-62
2022/12/14 12:43:31;;;;;;;17.43;9.37;;;-2.20;99.90;;;;;;4985903;28;20454;-61
2022/12/14 12:46:01;;;;;;;15.77;8.47;;;-2.20;99.90;;;;;;5006824;28;20251;-62
2022/12/14 12:48:33;;;;;;;12.80;8.23;;;-2.20;99.90;;;;;;5009288;28;21103;-61
2022/12/14 12:51:02;;;;;;;12.87;8.30;;;-2.20;99.90;;;;;;4971303;28;20645;-62
2022/12/14 12:53:34;;;;;;;14.70;8.80;;;-2.20;99.90;;;;;;4969435;28;20210;-62
2022/12/14 12:56:08;;;;;;;17.90;7.97;;;-2.20;99.90;;;;;;5000435;28;20886;-61
2022/12/14 12:58:36;;;;;;;15.17;8.40;;;-2.20;99.90;;;;;;4963153;28;20220;-62
2022/12/14 13:01:10;;;;;;;16.57;9.70;;;-2.20;99.90;;;;;;4977518;28;20229;-62
2022/12/14 13:03:43;;;;;;;17.87;9.57;;;-2.20;99.90;;;;;;4986001;28;20201;-61
2022/12/14 13:06:17;;;;;;;14.33;8.00;;;-2.20;99.90;;;;;;4984146;28;20476;-62
2022/12/14 13:08:47;;;;;;;14.57;8.60;;;-2.20;99.90;;;;;;4992791;28;20681;-61